createdAt,value
2022-09-26T00:01:29.355Z,12.88
2022-09-26T00:03:59.081Z,12.84
2022-09-26T00:06:28.605Z,12.87
2022-09-26T00:08:56.556Z,12.86
2022-09-26T00:11:30.874Z,12.91
2022-09-26T00:14:03.183Z,12.86
2022-09-26T00:16:33.610Z,12.87
2022-09-26T00:19:02.226Z,12.87
2022-09-26T00:21:30.505Z,12.85
2022-09-26T00:23:58.956Z,12.84
2022-09-26T00:26:27.718Z,12.80
2022-09-26T00:28:56.618Z,12.76
2022-09-26T00:31:30.370Z,12.74
2022-09-26T00:33:58.074Z,12.68
2022-09-26T00:36:36.890Z,12.66
2022-09-26T00:39:09.982Z,12.64
2022-09-26T00:41:38.864Z,12.60
2022-09-26T00:44:37.396Z,12.57
2022-09-26T00:47:05.662Z,12.52
2022-09-26T00:49:37.192Z,12.46
2022-09-26T00:52:06.877Z,12.42
2022-09-26T00:54:35.177Z,12.35
2022-09-26T00:57:07.189Z,12.31
2022-09-26T00:59:39.301Z,12.29
2022-09-26T01:02:07.191Z,12.22
2022-09-26T01:04:36.085Z,12.18
2022-09-26T01:07:07.740Z,12.16
2022-09-26T01:09:35.576Z,12.09
2022-09-26T01:12:04.517Z,12.06
2022-09-26T01:14:32.693Z,12.01
2022-09-26T01:17:00.461Z,12.00
2022-09-26T01:19:40.367Z,11.90
2022-09-26T01:22:16.266Z,11.81
2022-09-26T01:25:10.162Z,11.77
2022-09-26T01:27:46.978Z,11.72
2022-09-26T01:30:26.751Z,11.73
2022-09-26T01:33:07.763Z,11.71
2022-09-26T01:36:04.953Z,11.71
2022-09-26T01:39:23.157Z,11.65
2022-09-26T01:42:06.157Z,11.67
2022-09-26T01:44:52.958Z,11.68
2022-09-26T01:47:44.155Z,11.68
2022-09-26T01:50:36.175Z,11.63
2022-09-26T01:53:12.354Z,11.59
2022-09-26T01:55:56.521Z,11.53
2022-09-26T01:58:27.771Z,11.46
2022-09-26T02:00:58.236Z,11.38
2022-09-26T02:03:28.578Z,11.36
2022-09-26T02:06:00.581Z,11.29
2022-09-26T02:08:43.498Z,11.23
2022-09-26T02:11:17.337Z,11.20
2022-09-26T02:13:44.967Z,11.18
2022-09-26T02:16:17.920Z,11.16
2022-09-26T02:18:58.890Z,11.14
2022-09-26T02:21:28.149Z,11.10
2022-09-26T02:23:55.668Z,11.11
2022-09-26T02:26:23.507Z,11.19
2022-09-26T02:28:52.541Z,11.27
2022-09-26T02:31:23.204Z,11.30
2022-09-26T02:33:51.286Z,11.34
2022-09-26T02:36:19.371Z,11.45
2022-09-26T02:38:47.040Z,11.53
2022-09-26T02:42:02.678Z,11.61
2022-09-26T02:45:07.750Z,11.70
2022-09-26T02:48:04.573Z,11.76
2022-09-26T02:50:49.500Z,11.83
2022-09-26T02:53:43.910Z,11.88
2022-09-26T02:56:31.143Z,11.91
2022-09-26T02:59:13.634Z,11.99
2022-09-26T03:02:11.928Z,11.98
2022-09-26T03:04:57.803Z,12.08
2022-09-26T03:07:32.828Z,12.18
2022-09-26T03:10:00.931Z,12.27
2022-09-26T03:12:28.654Z,12.33
2022-09-26T03:14:58.857Z,12.45
2022-09-26T03:17:29.175Z,12.51
2022-09-26T03:20:03.348Z,12.61
2022-09-26T03:22:34.176Z,12.70
2022-09-26T03:25:02.105Z,12.77
2022-09-26T03:27:32.191Z,12.81
2022-09-26T03:29:59.958Z,12.89
2022-09-26T03:32:29.034Z,12.94
2022-09-26T03:34:57.535Z,12.93
2022-09-26T03:37:25.136Z,12.96
2022-09-26T03:39:52.868Z,13.00
2022-09-26T03:42:25.774Z,13.08
2022-09-26T03:44:54.956Z,13.01
2022-09-26T03:47:32.687Z,13.06
2022-09-26T03:50:00.461Z,13.06
2022-09-26T03:52:28.701Z,13.03
2022-09-26T03:54:56.281Z,13.00
2022-09-26T03:57:23.899Z,13.04
2022-09-26T03:59:57.264Z,13.04
2022-09-26T04:02:30.516Z,13.09
2022-09-26T04:05:13.271Z,13.06
2022-09-26T04:07:40.945Z,13.11
2022-09-26T04:10:09.036Z,13.18
2022-09-26T04:12:38.109Z,13.26
2022-09-26T04:15:07.295Z,13.38
2022-09-26T04:17:36.992Z,13.41
2022-09-26T04:20:05.299Z,13.43
2022-09-26T04:22:34.441Z,13.50
2022-09-26T04:25:02.121Z,13.57
2022-09-26T04:27:30.248Z,13.63
2022-09-26T04:29:57.770Z,13.65
2022-09-26T04:32:41.702Z,13.76
2022-09-26T04:35:35.305Z,13.80
2022-09-26T04:38:04.947Z,13.85
2022-09-26T04:40:34.174Z,13.86
2022-09-26T04:43:08.458Z,13.86
2022-09-26T04:45:36.333Z,13.87
2022-09-26T04:48:04.040Z,13.89
2022-09-26T04:50:54.459Z,13.89
2022-09-26T04:53:23.348Z,13.93
2022-09-26T04:56:05.222Z,13.98
2022-09-26T04:58:33.071Z,14.10
2022-09-26T05:01:05.051Z,14.11
2022-09-26T05:03:44.910Z,13.99
2022-09-26T05:06:13.417Z,14.18
2022-09-26T05:08:46.612Z,14.26
2022-09-26T05:11:16.298Z,14.58
2022-09-26T05:13:45.113Z,14.79
2022-09-26T05:16:14.600Z,14.88
2022-09-26T05:18:43.454Z,15.06
2022-09-26T05:21:11.108Z,15.32
2022-09-26T05:23:57.212Z,15.45
2022-09-26T05:26:37.765Z,15.34
2022-09-26T05:29:08.726Z,15.37
2022-09-26T05:31:46.895Z,15.48
2022-09-26T05:34:19.815Z,15.37
2022-09-26T05:36:48.714Z,15.22
2022-09-26T05:39:37.825Z,15.18
2022-09-26T05:42:09.486Z,15.19
2022-09-26T05:44:39.990Z,15.15
2022-09-26T05:47:09.105Z,15.26
2022-09-26T05:49:38.186Z,15.22
2022-09-26T05:52:05.933Z,15.32
2022-09-26T05:54:33.933Z,15.40
2022-09-26T05:57:07.359Z,15.44
2022-09-26T05:59:45.321Z,15.38
2022-09-26T06:02:20.874Z,15.30
2022-09-26T06:05:07.460Z,15.43
2022-09-26T06:07:39.123Z,15.50
2022-09-26T06:10:11.581Z,15.50
2022-09-26T06:12:47.588Z,15.31
2022-09-26T06:15:17.825Z,15.38
2022-09-26T06:17:45.629Z,15.40
2022-09-26T06:20:13.312Z,15.54
2022-09-26T06:22:41.585Z,15.48
2022-09-26T06:25:10.060Z,15.51
2022-09-26T06:27:38.848Z,15.45
2022-09-26T06:30:10.885Z,15.44
2022-09-26T06:32:41.813Z,15.48
2022-09-26T06:35:21.878Z,15.50
2022-09-26T06:38:08.164Z,15.56
2022-09-26T06:40:36.573Z,15.73
2022-09-26T06:43:04.432Z,16.03
2022-09-26T06:45:50.419Z,16.09
2022-09-26T06:48:25.766Z,16.45
2022-09-26T06:51:00.661Z,16.75
2022-09-26T06:53:31.122Z,16.80
2022-09-26T06:55:59.962Z,16.66
2022-09-26T06:58:28.101Z,16.63
2022-09-26T07:01:06.829Z,16.45
2022-09-26T07:03:54.470Z,16.48
2022-09-26T07:06:42.035Z,16.71
2022-09-26T07:09:12.188Z,16.88
2022-09-26T07:14:43.733Z,17.48
2022-09-26T07:17:21.005Z,17.76
2022-09-26T07:20:18.193Z,17.85
2022-09-26T07:22:55.637Z,17.91
2022-09-26T07:25:23.289Z,17.52
2022-09-26T07:27:51.819Z,17.66
2022-09-26T07:30:23.552Z,17.73
2022-09-26T07:33:07.310Z,17.88
2022-09-26T07:35:44.543Z,18.11
2022-09-26T07:38:13.324Z,18.30
2022-09-26T07:40:43.374Z,18.29
2022-09-26T07:43:20.722Z,18.35
2022-09-26T07:46:13.600Z,18.48
2022-09-26T07:49:04.509Z,18.58
2022-09-26T07:51:55.061Z,18.50
2022-09-26T07:54:25.712Z,18.70
2022-09-26T07:57:12.740Z,18.67
2022-09-26T07:59:52.138Z,18.67
2022-09-26T08:02:34.271Z,18.86
2022-09-26T08:05:05.226Z,18.77
2022-09-26T08:07:35.658Z,18.75
2022-09-26T08:10:22.101Z,18.77
2022-09-26T08:13:22.114Z,18.70
2022-09-26T08:16:15.436Z,18.88
2022-09-26T08:18:45.381Z,19.20
2022-09-26T08:21:13.260Z,19.26
2022-09-26T08:23:59.592Z,19.43
2022-09-26T08:26:45.721Z,19.06
2022-09-26T08:29:39.301Z,18.91
2022-09-26T08:32:06.968Z,19.14
2022-09-26T08:34:36.633Z,19.22
2022-09-26T08:37:28.186Z,19.30
2022-09-26T08:40:23.382Z,19.36
2022-09-26T08:43:11.430Z,19.56
2022-09-26T08:46:12.335Z,19.51
2022-09-26T08:49:06.849Z,19.58
2022-09-26T08:51:39.054Z,19.47
2022-09-26T08:54:13.271Z,19.34
2022-09-26T08:56:44.313Z,19.59
2022-09-26T08:59:14.609Z,19.68
2022-09-26T09:01:42.827Z,19.82
2022-09-26T09:04:23.719Z,19.72
2022-09-26T09:06:55.036Z,19.90
2022-09-26T09:09:24.076Z,20.04
2022-09-26T09:12:32.409Z,20.08
2022-09-26T09:15:33.484Z,20.20
2022-09-26T09:18:33.142Z,20.31
2022-09-26T09:21:38.040Z,19.94
2022-09-26T09:24:36.749Z,19.79
2022-09-26T09:30:19.042Z,19.91
2022-09-26T09:33:27.807Z,19.90
2022-09-26T09:36:43.694Z,20.07
2022-09-26T09:39:40.751Z,20.29
2022-09-26T09:42:46.110Z,20.24
2022-09-26T09:45:16.173Z,20.35
2022-09-26T09:47:44.930Z,20.47
2022-09-26T09:50:15.211Z,20.68
2022-09-26T09:52:47.747Z,20.79
2022-09-26T09:55:21.453Z,20.98
2022-09-26T09:57:58.437Z,21.22
2022-09-26T10:00:28.509Z,21.41
2022-09-26T10:03:20.270Z,21.64
2022-09-26T10:05:53.641Z,21.42
2022-09-26T10:08:37.144Z,21.25
2022-09-26T10:11:41.914Z,21.23
2022-09-26T10:14:35.425Z,21.14
2022-09-26T10:17:12.140Z,20.96
2022-09-26T10:20:04.730Z,21.03
2022-09-26T10:22:45.121Z,21.28
2022-09-26T10:25:25.784Z,21.57
2022-09-26T10:27:55.369Z,21.70
2022-09-26T10:30:30.659Z,21.92
2022-09-26T10:33:06.683Z,21.88
2022-09-26T10:36:05.101Z,22.19
2022-09-26T10:39:09.281Z,22.32
2022-09-26T10:41:41.467Z,22.33
2022-09-26T10:44:25.997Z,22.20
2022-09-26T10:47:31.589Z,21.61
2022-09-26T10:50:19.515Z,21.77
2022-09-26T10:53:08.534Z,22.11
2022-09-26T10:55:44.713Z,21.97
2022-09-26T10:58:18.720Z,22.22
2022-09-26T11:00:50.735Z,22.20
2022-09-26T11:03:22.923Z,22.26
2022-09-26T11:06:33.387Z,22.48
2022-09-26T11:09:22.394Z,22.56
2022-09-26T11:11:56.499Z,22.44
2022-09-26T11:14:32.770Z,22.56
2022-09-26T11:17:12.138Z,22.69
2022-09-26T11:19:54.826Z,22.74
2022-09-26T11:22:31.959Z,22.69
2022-09-26T11:25:07.291Z,22.65
2022-09-26T11:27:46.945Z,23.14
2022-09-26T11:30:22.099Z,23.43
2022-09-26T11:32:58.142Z,23.15
2022-09-26T11:35:56.897Z,23.11
2022-09-26T11:38:42.051Z,23.19
2022-09-26T11:41:38.454Z,23.17
2022-09-26T11:44:33.847Z,23.19
2022-09-26T11:47:37.057Z,23.15
2022-09-26T11:50:40.342Z,23.13
2022-09-26T11:53:22.465Z,23.05
2022-09-26T11:56:29.943Z,22.99
2022-09-26T11:59:00.771Z,23.13
2022-09-26T12:01:56.011Z,23.70
2022-09-26T12:04:38.938Z,23.88
2022-09-26T12:07:22.615Z,23.95
2022-09-26T12:10:06.524Z,24.31
2022-09-26T12:12:41.992Z,23.90
2022-09-26T12:15:22.100Z,23.62
2022-09-26T12:17:52.682Z,23.30
2022-09-26T12:20:20.070Z,23.01
2022-09-26T12:23:20.271Z,23.16
2022-09-26T12:26:00.878Z,23.05
2022-09-26T12:28:35.034Z,22.95
2022-09-26T12:31:09.767Z,22.64
2022-09-26T12:33:46.475Z,22.67
2022-09-26T12:36:31.428Z,22.88
2022-09-26T12:39:15.659Z,22.84
2022-09-26T12:42:11.169Z,22.58
2022-09-26T12:44:48.398Z,22.44
2022-09-26T12:47:39.910Z,22.71
2022-09-26T12:50:36.570Z,22.80
2022-09-26T12:53:19.367Z,23.04
2022-09-26T12:55:54.319Z,23.31
2022-09-26T12:58:38.082Z,23.31
2022-09-26T13:01:15.186Z,23.61
2022-09-26T13:04:14.298Z,23.64
2022-09-26T13:07:07.696Z,23.39
2022-09-26T13:09:57.758Z,23.14
2022-09-26T13:12:40.681Z,23.02
2022-09-26T13:15:23.471Z,22.84
2022-09-26T13:18:25.810Z,22.68
2022-09-26T13:21:07.751Z,22.48
2022-09-26T13:23:53.983Z,22.40
2022-09-26T13:26:48.587Z,22.21
2022-09-26T13:29:20.606Z,22.13
2022-09-26T13:32:15.949Z,22.07
2022-09-26T13:34:47.381Z,21.97
2022-09-26T13:37:47.948Z,21.82
2022-09-26T13:40:53.297Z,21.90
2022-09-26T13:43:33.683Z,21.76
2022-09-26T13:46:16.839Z,21.86
2022-09-26T13:49:13.559Z,21.97
2022-09-26T13:51:49.711Z,21.97
2022-09-26T13:54:44.210Z,22.30
2022-09-26T13:57:50.110Z,22.75
2022-09-26T14:00:30.434Z,23.01
2022-09-26T14:03:16.838Z,23.19
2022-09-26T14:05:47.059Z,23.35
2022-09-26T14:08:52.496Z,23.73
2022-09-26T14:11:35.365Z,23.81
2022-09-26T14:14:18.159Z,24.11
2022-09-26T14:16:55.686Z,24.24
2022-09-26T14:19:49.181Z,24.13
2022-09-26T14:22:20.617Z,24.07
2022-09-26T14:24:48.905Z,23.86
2022-09-26T14:27:17.003Z,24.05
2022-09-26T14:29:52.074Z,23.75
2022-09-26T14:32:20.934Z,23.69
2022-09-26T14:35:03.021Z,23.35
2022-09-26T14:37:30.615Z,22.85
2022-09-26T14:40:10.793Z,22.59
2022-09-26T14:42:42.154Z,22.22
2022-09-26T14:45:44.502Z,21.63
2022-09-26T14:48:12.058Z,21.67
2022-09-26T14:51:03.623Z,21.51
2022-09-26T14:53:41.631Z,21.29
2022-09-26T14:56:29.362Z,21.18
2022-09-26T14:59:24.851Z,20.87
2022-09-26T15:01:53.288Z,20.83
2022-09-26T15:04:30.410Z,20.72
2022-09-26T15:07:01.794Z,20.48
2022-09-26T15:09:51.240Z,20.17
2022-09-26T15:12:40.849Z,20.04
2022-09-26T15:15:17.472Z,19.93
2022-09-26T15:17:49.983Z,19.88
2022-09-26T15:20:20.147Z,19.80
2022-09-26T15:22:48.112Z,19.51
2022-09-26T15:25:18.545Z,19.44
2022-09-26T15:27:51.240Z,19.25
2022-09-26T15:30:20.580Z,19.08
2022-09-26T15:32:49.370Z,18.81
2022-09-26T15:35:17.176Z,18.69
2022-09-26T15:37:45.999Z,18.57
2022-09-26T15:40:27.577Z,18.47
2022-09-26T15:43:08.137Z,18.32
2022-09-26T15:45:48.998Z,18.18
2022-09-26T15:48:19.463Z,17.99
2022-09-26T15:50:48.899Z,17.87
2022-09-26T15:53:25.554Z,17.74
2022-09-26T15:55:55.960Z,17.59
2022-09-26T15:58:47.012Z,17.57
2022-09-26T16:01:19.241Z,17.46
2022-09-26T16:04:04.007Z,17.42
2022-09-26T16:06:41.960Z,17.46
2022-09-26T16:09:22.080Z,17.49
2022-09-26T16:11:54.553Z,17.55
2022-09-26T16:14:26.985Z,17.62
2022-09-26T16:17:15.936Z,17.64
2022-09-26T16:19:47.671Z,17.65
2022-09-26T16:22:45.673Z,17.62
2022-09-26T16:25:19.428Z,17.63
2022-09-26T16:27:49.564Z,17.60
2022-09-26T16:30:23.897Z,17.65
2022-09-26T16:32:52.950Z,17.59
2022-09-26T16:35:28.610Z,17.53
2022-09-26T16:38:05.666Z,17.50
2022-09-26T16:40:34.729Z,17.42
2022-09-26T16:43:27.324Z,17.36
2022-09-26T16:46:10.198Z,17.36
2022-09-26T16:48:42.119Z,17.32
2022-09-26T16:51:13.719Z,17.30
2022-09-26T16:53:49.021Z,17.24
2022-09-26T16:56:17.676Z,17.27
2022-09-26T16:59:04.250Z,17.24
2022-09-26T17:01:50.654Z,17.19
2022-09-26T17:04:19.675Z,17.10
2022-09-26T17:06:47.573Z,17.10
2022-09-26T17:09:28.395Z,17.12
2022-09-26T17:12:06.561Z,17.07
2022-09-26T17:14:40.420Z,17.05
2022-09-26T17:17:16.564Z,17.09
2022-09-26T17:19:46.355Z,17.10
2022-09-26T17:22:14.962Z,17.06
2022-09-26T17:24:43.131Z,16.99
2022-09-26T17:27:13.982Z,16.94
2022-09-26T17:29:44.295Z,16.98
2022-09-26T17:32:23.893Z,16.90
2022-09-26T17:34:51.824Z,16.88
2022-09-26T17:37:20.420Z,16.80
2022-09-26T17:39:48.283Z,16.78
2022-09-26T17:42:17.362Z,16.78
2022-09-26T17:44:48.344Z,16.76
2022-09-26T17:47:16.515Z,16.72
2022-09-26T17:49:52.452Z,16.77
2022-09-26T17:52:29.375Z,16.79
2022-09-26T17:55:02.458Z,16.80
2022-09-26T17:57:30.424Z,16.85
2022-09-26T17:59:58.143Z,16.90
2022-09-26T18:02:42.741Z,16.93
2022-09-26T18:05:19.580Z,16.84
2022-09-26T18:07:47.468Z,16.82
2022-09-26T18:10:23.464Z,16.83
2022-09-26T18:12:57.928Z,16.83
2022-09-26T18:15:25.893Z,16.84
2022-09-26T18:17:55.487Z,16.86
2022-09-26T18:20:27.327Z,16.85
2022-09-26T18:22:54.889Z,16.85
2022-09-26T18:25:24.081Z,16.85
2022-09-26T18:27:53.440Z,16.82
2022-09-26T18:30:21.368Z,16.81
2022-09-26T18:32:55.105Z,16.81
2022-09-26T18:35:27.370Z,16.88
2022-09-26T18:37:55.914Z,16.83
2022-09-26T18:40:24.132Z,16.84
2022-09-26T18:42:54.937Z,16.84
2022-09-26T18:45:32.923Z,16.83
2022-09-26T18:48:05.162Z,16.77
2022-09-26T18:50:37.667Z,16.78
2022-09-26T18:53:11.102Z,16.79
2022-09-26T18:55:57.281Z,16.74
2022-09-26T18:58:25.459Z,16.77
2022-09-26T19:00:56.704Z,16.78
2022-09-26T19:03:24.889Z,16.77
2022-09-26T19:05:54.975Z,16.88
2022-09-26T19:08:39.585Z,16.92
2022-09-26T19:11:14.855Z,16.91
2022-09-26T19:13:49.771Z,16.88
2022-09-26T19:16:17.416Z,16.87
2022-09-26T19:18:46.275Z,16.83
2022-09-26T19:21:46.703Z,16.77
2022-09-26T19:24:26.441Z,16.77
2022-09-26T19:27:09.813Z,16.80
2022-09-26T19:29:39.265Z,16.66
2022-09-26T19:32:15.656Z,16.53
2022-09-26T19:34:46.120Z,16.55
2022-09-26T19:37:14.227Z,16.49
2022-09-26T19:39:41.802Z,16.50
2022-09-26T19:42:09.923Z,16.44
2022-09-26T19:44:37.490Z,16.45
2022-09-26T19:47:05.128Z,16.46
2022-09-26T19:49:32.853Z,16.38
2022-09-26T19:52:02.622Z,16.39
2022-09-26T19:54:30.704Z,16.38
2022-09-26T19:56:58.889Z,16.46
2022-09-26T19:59:27.676Z,16.43
2022-09-26T20:01:56.268Z,16.48
2022-09-26T20:04:24.156Z,16.41
2022-09-26T20:06:51.732Z,16.44
2022-09-26T20:09:19.675Z,16.43
2022-09-26T20:11:47.426Z,16.42
2022-09-26T20:14:23.950Z,16.43
2022-09-26T20:16:56.886Z,16.42
2022-09-26T20:19:31.009Z,16.40
2022-09-26T20:22:03.050Z,16.40
2022-09-26T20:24:31.556Z,16.44
2022-09-26T20:27:01.090Z,16.44
2022-09-26T20:29:28.812Z,16.50
2022-09-26T20:31:56.679Z,16.51
2022-09-26T20:34:25.769Z,16.55
2022-09-26T20:36:53.551Z,16.52
2022-09-26T20:39:25.434Z,16.56
2022-09-26T20:41:53.029Z,16.65
2022-09-26T20:44:21.716Z,16.66
2022-09-26T20:46:50.778Z,16.65
2022-09-26T20:49:22.221Z,16.71
2022-09-26T20:51:50.071Z,16.70
2022-09-26T20:54:27.699Z,16.75
2022-09-26T20:56:55.537Z,16.75
2022-09-26T20:59:23.992Z,16.76
2022-09-26T21:01:52.204Z,16.74
2022-09-26T21:04:20.831Z,16.75
2022-09-26T21:06:48.489Z,16.71
2022-09-26T21:09:18.530Z,16.75
2022-09-26T21:11:48.300Z,16.77
2022-09-26T21:14:17.052Z,16.81
2022-09-26T21:16:48.585Z,16.79
2022-09-26T21:19:19.735Z,16.80
2022-09-26T21:21:49.993Z,16.82
2022-09-26T21:24:29.906Z,16.86
2022-09-26T21:26:57.997Z,16.80
2022-09-26T21:29:25.476Z,16.81
2022-09-26T21:31:53.614Z,16.79
2022-09-26T21:34:22.599Z,16.81
2022-09-26T21:36:51.583Z,16.85
2022-09-26T21:39:19.638Z,16.82
2022-09-26T21:41:48.649Z,16.76
2022-09-26T21:44:28.255Z,16.82
2022-09-26T21:46:55.812Z,16.80
2022-09-26T21:49:23.422Z,16.85
2022-09-26T21:51:54.617Z,16.86
2022-09-26T21:54:25.110Z,16.77
2022-09-26T21:56:55.038Z,16.73
2022-09-26T21:59:22.925Z,16.73
2022-09-26T22:01:50.812Z,16.76
2022-09-26T22:04:19.159Z,16.74
2022-09-26T22:06:46.664Z,16.77
2022-09-26T22:09:14.933Z,16.74
2022-09-26T22:11:43.220Z,16.75
2022-09-26T22:14:10.728Z,16.67
2022-09-26T22:16:38.319Z,16.74
2022-09-26T22:19:07.009Z,16.73
2022-09-26T22:21:35.543Z,16.71
2022-09-26T22:24:03.241Z,16.78
2022-09-26T22:26:30.768Z,16.70
2022-09-26T22:28:58.241Z,16.71
2022-09-26T22:31:25.831Z,16.73
2022-09-26T22:33:58.324Z,16.64
2022-09-26T22:36:27.486Z,16.68
2022-09-26T22:38:55.121Z,16.77
2022-09-26T22:41:24.977Z,16.72
2022-09-26T22:43:53.172Z,16.74
2022-09-26T22:46:21.732Z,16.69
2022-09-26T22:48:49.372Z,16.66
2022-09-26T22:51:17.148Z,16.68
2022-09-26T22:53:45.032Z,16.66
2022-09-26T22:56:13.697Z,16.64
2022-09-26T22:58:51.312Z,16.68
2022-09-26T23:01:25.308Z,16.63
2022-09-26T23:03:55.788Z,16.69
2022-09-26T23:06:23.441Z,16.70
2022-09-26T23:08:51.572Z,16.67
2022-09-26T23:11:19.704Z,16.74
2022-09-26T23:13:50.239Z,16.68
2022-09-26T23:16:20.770Z,16.72
2022-09-26T23:18:49.104Z,16.69
2022-09-26T23:21:18.487Z,16.70
2022-09-26T23:23:48.177Z,16.70
2022-09-26T23:26:21.684Z,16.69
2022-09-26T23:28:52.938Z,16.67
2022-09-26T23:31:20.760Z,16.71
2022-09-26T23:33:48.694Z,16.67
2022-09-26T23:36:16.556Z,16.60
2022-09-26T23:38:45.274Z,16.60
2022-09-26T23:41:12.938Z,16.60
2022-09-26T23:43:40.733Z,16.54
2022-09-26T23:46:08.527Z,16.57
2022-09-26T23:48:36.444Z,16.49
2022-09-26T23:51:05.633Z,16.54
2022-09-26T23:53:34.042Z,16.51
2022-09-26T23:56:05.236Z,16.48
2022-09-26T23:58:32.881Z,16.48
